Terminal Aerodrome Forecast
Issued by NWS Louisville, KY

Home | Current Version | Previous Version | Text Only | Print | Product List | Glossary On
Versions: 1 2 3 4 5 6 7 8 9 10 11 12 13 14 15 16 17 18 19 20
000
FTUS43 KLMK 230524
TAFSDF
TAF
KSDF 230524Z 2306/2412 22009KT P6SM VCSH BKN080
     FM230700 28010G20KT 5SM -TSRA BKN050CB
      TEMPO 2307/2308 2SM TSRA
     FM230900 24009KT P6SM VCTS BKN060CB
     FM231300 24009KT P6SM BKN050
     FM231800 26010KT P6SM BKN050 PROB30 2318/2323 VRB13G23KT 3SM
      -TSRA BKN050CB
     FM232300 VRB04KT P6SM SCT050=

USA.gov is the U.S. government's official web portal to all federal, state and local government web resources and services.